createdAt,value
2018-09-30T00:00:42.682Z,1.70
2018-09-30T00:03:09.823Z,1.70
2018-09-30T00:05:36.962Z,1.60
2018-09-30T00:08:04.119Z,1.60
2018-09-30T00:10:31.328Z,1.60
2018-09-30T00:12:58.508Z,1.60
2018-09-30T00:15:25.661Z,1.60
2018-09-30T00:17:52.870Z,1.50
2018-09-30T00:20:20.280Z,1.50
2018-09-30T00:22:47.435Z,1.50
2018-09-30T00:25:20.262Z,1.50
2018-09-30T00:27:47.416Z,1.40
2018-09-30T00:30:14.557Z,1.40
2018-09-30T00:32:41.731Z,1.40
2018-09-30T00:35:08.942Z,1.40
2018-09-30T00:37:36.104Z,1.40
2018-09-30T00:40:03.311Z,1.30
2018-09-30T00:42:30.464Z,1.30
2018-09-30T00:44:57.621Z,1.30
2018-09-30T00:47:24.785Z,1.30
2018-09-30T00:49:51.960Z,1.20
2018-09-30T00:52:19.250Z,1.20
2018-09-30T00:54:46.402Z,1.20
2018-09-30T00:57:13.610Z,1.10
2018-09-30T00:59:40.912Z,1.10
2018-09-30T01:02:08.079Z,1.10
2018-09-30T01:04:35.219Z,1.10
2018-09-30T01:07:02.378Z,1.10
2018-09-30T01:09:29.527Z,1.00
2018-09-30T01:11:56.674Z,1.00
2018-09-30T01:14:23.836Z,1.00
2018-09-30T01:16:51.152Z,1.00
2018-09-30T01:19:18.375Z,1.00
2018-09-30T01:21:45.572Z,0.90
2018-09-30T01:24:12.711Z,0.90
2018-09-30T01:26:39.871Z,0.90
2018-09-30T01:29:07.026Z,0.90
2018-09-30T01:31:34.370Z,0.80
2018-09-30T01:34:01.521Z,0.80
2018-09-30T01:36:28.700Z,0.80
2018-09-30T01:38:55.860Z,0.80
2018-09-30T01:41:23.407Z,0.70
2018-09-30T01:43:50.542Z,0.70
2018-09-30T01:46:17.677Z,0.70
2018-09-30T01:48:44.862Z,0.70
2018-09-30T01:51:12.011Z,0.60
2018-09-30T01:53:39.149Z,0.60
2018-09-30T01:56:06.419Z,0.60
2018-09-30T01:58:33.569Z,0.60
2018-09-30T02:01:00.728Z,0.60
2018-09-30T02:03:27.960Z,0.60
2018-09-30T02:05:55.135Z,0.60
2018-09-30T02:08:22.288Z,0.50
2018-09-30T02:10:49.614Z,0.50
2018-09-30T02:13:16.784Z,0.50
2018-09-30T02:15:43.932Z,0.50
2018-09-30T02:18:11.095Z,0.50
2018-09-30T02:20:38.244Z,0.50
2018-09-30T02:23:05.427Z,0.50
2018-09-30T02:25:32.647Z,0.40
2018-09-30T02:27:59.797Z,0.40
2018-09-30T02:30:26.960Z,0.40
2018-09-30T02:32:54.116Z,0.40
2018-09-30T02:35:21.264Z,0.40
2018-09-30T02:37:48.450Z,0.40
2018-09-30T02:40:15.629Z,0.40
2018-09-30T02:42:42.784Z,0.40
2018-09-30T02:45:09.945Z,0.30
2018-09-30T02:47:37.220Z,0.30
2018-09-30T02:50:04.439Z,0.30
2018-09-30T02:52:31.733Z,0.30
2018-09-30T02:54:58.877Z,0.30
2018-09-30T02:57:26.020Z,0.30
2018-09-30T02:59:53.192Z,0.30
2018-09-30T03:02:20.329Z,0.20
2018-09-30T03:04:47.480Z,0.20
2018-09-30T03:07:20.387Z,0.20
2018-09-30T03:09:47.617Z,0.20
2018-09-30T03:12:14.830Z,0.20
2018-09-30T03:14:42.032Z,0.10
2018-09-30T03:17:09.188Z,0.10
2018-09-30T03:19:36.335Z,0.10
2018-09-30T03:22:03.496Z,0.10
2018-09-30T03:24:30.767Z,0.00
2018-09-30T03:26:57.915Z,0.00
2018-09-30T03:29:25.122Z,0.00
2018-09-30T03:31:52.456Z,0.00
2018-09-30T03:34:19.644Z,0.00
2018-09-30T03:36:46.917Z,0.00
2018-09-30T03:39:14.100Z,-0.10
2018-09-30T03:41:41.319Z,-0.10
2018-09-30T03:44:08.488Z,-0.10
2018-09-30T03:46:35.713Z,-0.10
2018-09-30T03:49:03.013Z,-0.10
2018-09-30T03:51:30.151Z,-0.10
2018-09-30T03:53:57.306Z,-0.10
2018-09-30T03:56:24.478Z,-0.10
2018-09-30T03:58:51.735Z,-0.10
2018-09-30T04:01:18.912Z,-0.20
2018-09-30T04:03:46.092Z,-0.20
2018-09-30T04:06:13.337Z,-0.20
2018-09-30T04:08:40.574Z,-0.20
2018-09-30T04:11:07.875Z,-0.20
2018-09-30T04:13:35.191Z,-0.20
2018-09-30T04:16:02.486Z,-0.20
2018-09-30T04:18:29.679Z,-0.20
2018-09-30T04:20:56.936Z,-0.20
2018-09-30T04:23:24.835Z,-0.20
2018-09-30T04:25:52.062Z,-0.30
2018-09-30T04:28:19.341Z,-0.30
2018-09-30T04:30:46.575Z,-0.30
2018-09-30T04:33:13.755Z,-0.30
2018-09-30T04:35:40.934Z,-0.30
2018-09-30T04:38:08.714Z,-0.30
2018-09-30T04:40:35.988Z,-0.30
2018-09-30T04:43:03.220Z,-0.30
2018-09-30T04:45:30.456Z,-0.40
2018-09-30T04:47:57.736Z,-0.40
2018-09-30T04:50:25.008Z,-0.40
2018-09-30T04:52:52.244Z,-0.40
2018-09-30T04:55:19.415Z,-0.40
2018-09-30T04:57:46.648Z,-0.40
2018-09-30T05:00:13.834Z,-0.40
2018-09-30T05:02:40.994Z,-0.50
2018-09-30T05:05:08.220Z,-0.50
2018-09-30T05:07:35.474Z,-0.50
2018-09-30T05:10:02.734Z,-0.50
2018-09-30T05:12:29.995Z,-0.50
2018-09-30T05:14:57.215Z,-0.50
2018-09-30T05:17:25.556Z,-0.50
2018-09-30T05:19:53.231Z,-0.50
2018-09-30T05:22:20.370Z,-0.50
2018-09-30T05:24:48.250Z,-0.50
2018-09-30T05:27:15.396Z,-0.50
2018-09-30T05:29:42.782Z,-0.60
2018-09-30T05:32:10.031Z,-0.60
2018-09-30T05:34:37.422Z,-0.60
2018-09-30T05:37:04.654Z,-0.60
2018-09-30T05:39:31.796Z,-0.60
2018-09-30T05:41:59.054Z,-0.60
2018-09-30T05:44:26.201Z,-0.60
2018-09-30T05:46:53.346Z,-0.60
2018-09-30T05:49:20.578Z,-0.60
2018-09-30T05:51:47.904Z,-0.60
2018-09-30T05:54:15.064Z,-0.60
2018-09-30T05:56:42.233Z,-0.60
2018-09-30T05:59:09.422Z,-0.60
2018-09-30T06:01:36.663Z,-0.60
2018-09-30T06:04:03.960Z,-0.60
2018-09-30T06:06:30.979Z,-0.60
2018-09-30T06:08:58.187Z,-0.60
2018-09-30T06:11:25.364Z,-0.60
2018-09-30T06:13:52.664Z,-0.60
2018-09-30T06:16:19.739Z,-0.50
2018-09-30T06:18:46.974Z,-0.60
2018-09-30T06:21:14.128Z,-0.50
2018-09-30T06:23:41.347Z,-0.50
2018-09-30T06:26:08.513Z,-0.50
2018-09-30T06:28:35.771Z,-0.50
2018-09-30T06:31:02.945Z,-0.40
2018-09-30T06:33:30.098Z,-0.40
2018-09-30T06:35:57.263Z,-0.40
2018-09-30T06:38:24.450Z,-0.30
2018-09-30T06:40:51.614Z,-0.30
2018-09-30T06:43:18.770Z,-0.20
2018-09-30T06:45:46.037Z,-0.20
2018-09-30T06:48:13.188Z,0.40
2018-09-30T06:50:40.442Z,0.70
2018-09-30T06:53:07.600Z,1.10
2018-09-30T06:55:34.780Z,2.30
2018-09-30T06:58:01.959Z,3.00
2018-09-30T07:00:29.137Z,3.80
2018-09-30T07:02:56.285Z,4.80
2018-09-30T07:05:23.434Z,5.60
2018-09-30T07:07:50.587Z,6.10
2018-09-30T07:10:17.736Z,6.10
2018-09-30T07:12:44.912Z,5.60
2018-09-30T07:15:12.093Z,5.10
2018-09-30T07:17:40.099Z,4.60
2018-09-30T07:20:07.268Z,4.20
2018-09-30T07:22:34.530Z,3.80
2018-09-30T07:25:01.751Z,3.50
2018-09-30T07:27:28.894Z,3.30
2018-09-30T07:29:56.155Z,3.10
2018-09-30T07:32:23.335Z,3.00
2018-09-30T07:34:50.586Z,2.80
2018-09-30T07:37:17.812Z,2.80
2018-09-30T07:39:44.987Z,2.70
2018-09-30T07:42:12.161Z,2.70
2018-09-30T07:44:39.432Z,2.80
2018-09-30T07:47:06.616Z,3.10
2018-09-30T07:49:33.780Z,3.30
2018-09-30T07:52:01.018Z,3.60
2018-09-30T07:54:28.167Z,3.90
2018-09-30T07:56:55.415Z,4.30
2018-09-30T07:59:22.588Z,4.70
2018-09-30T08:01:49.808Z,5.10
2018-09-30T08:04:16.949Z,5.50
2018-09-30T08:06:44.214Z,6.00
2018-09-30T08:09:11.355Z,6.50
2018-09-30T08:11:38.506Z,6.90
2018-09-30T08:14:05.722Z,7.40
2018-09-30T08:16:32.985Z,7.80
2018-09-30T08:19:00.480Z,8.30
2018-09-30T08:21:27.732Z,8.90
2018-09-30T08:23:54.886Z,9.50
2018-09-30T08:26:22.069Z,9.90
2018-09-30T08:28:49.242Z,10.40
2018-09-30T08:31:16.953Z,11.00
2018-09-30T08:33:44.196Z,11.40
2018-09-30T08:36:11.413Z,11.80
2018-09-30T08:38:39.969Z,12.10
2018-09-30T08:41:08.522Z,12.40
2018-09-30T08:43:36.798Z,12.80
2018-09-30T08:46:04.147Z,13.10
2018-09-30T08:48:31.336Z,13.40
2018-09-30T08:50:58.635Z,13.70
2018-09-30T08:53:26.197Z,14.00
2018-09-30T08:55:53.994Z,14.30
2018-09-30T08:58:21.141Z,14.60
2018-09-30T09:00:48.368Z,14.90
2018-09-30T09:03:15.630Z,15.30
2018-09-30T09:05:42.907Z,15.60
2018-09-30T09:08:10.067Z,16.10
2018-09-30T09:10:38.395Z,16.50
2018-09-30T09:13:05.712Z,16.90
2018-09-30T09:15:32.908Z,17.40
2018-09-30T09:18:00.346Z,17.90
2018-09-30T09:20:27.496Z,18.40
2018-09-30T09:22:54.768Z,18.90
2018-09-30T09:25:21.864Z,19.40
2018-09-30T09:27:49.117Z,19.80
2018-09-30T09:30:16.298Z,20.30
2018-09-30T09:32:43.574Z,20.40
2018-09-30T09:35:10.941Z,20.50
2018-09-30T09:37:38.486Z,20.60
2018-09-30T09:40:07.571Z,20.80
2018-09-30T09:42:34.744Z,21.00
2018-09-30T09:45:01.951Z,21.30
2018-09-30T09:47:29.172Z,21.60
2018-09-30T09:49:56.391Z,21.90
2018-09-30T09:52:23.584Z,22.20
2018-09-30T09:54:50.720Z,22.50
2018-09-30T09:57:18.331Z,22.70
2018-09-30T09:59:45.537Z,23.00
2018-09-30T10:02:12.730Z,23.10
2018-09-30T10:04:39.894Z,23.20
2018-09-30T10:07:07.080Z,23.20
2018-09-30T10:09:35.378Z,23.00
2018-09-30T10:12:02.554Z,22.70
2018-09-30T10:14:29.823Z,22.80
2018-09-30T10:16:57.035Z,22.80
2018-09-30T10:19:24.282Z,23.00
2018-09-30T10:21:51.437Z,23.20
2018-09-30T10:24:18.656Z,23.30
2018-09-30T10:26:45.862Z,23.60
2018-09-30T10:29:13.179Z,23.90
2018-09-30T10:31:40.404Z,24.30
2018-09-30T10:34:07.587Z,24.50
2018-09-30T10:36:34.774Z,24.60
2018-09-30T10:39:02.796Z,25.00
2018-09-30T10:41:29.936Z,25.00
2018-09-30T10:43:57.185Z,25.30
2018-09-30T10:46:24.458Z,25.60
2018-09-30T10:48:51.686Z,26.10
2018-09-30T10:51:18.943Z,26.30
2018-09-30T10:53:46.148Z,26.50
2018-09-30T10:56:13.340Z,26.30
2018-09-30T10:58:40.491Z,26.40
2018-09-30T11:01:08.044Z,26.60
2018-09-30T11:03:35.377Z,26.70
2018-09-30T11:06:02.608Z,27.00
2018-09-30T11:08:29.775Z,27.20
2018-09-30T11:10:56.951Z,27.10
2018-09-30T11:13:24.111Z,27.20
2018-09-30T11:15:51.320Z,27.20
2018-09-30T11:18:18.644Z,26.80
2018-09-30T11:20:45.883Z,26.80
2018-09-30T11:23:13.165Z,26.90
2018-09-30T11:25:40.428Z,27.00
2018-09-30T11:28:07.799Z,27.20
2018-09-30T11:30:35.153Z,27.40
2018-09-30T11:33:02.332Z,27.60
2018-09-30T11:35:29.514Z,27.70
2018-09-30T11:37:56.740Z,27.60
2018-09-30T11:40:24.007Z,27.50
2018-09-30T11:42:51.293Z,27.30
2018-09-30T11:45:18.496Z,27.20
2018-09-30T11:47:45.670Z,27.30
2018-09-30T11:50:13.235Z,27.60
2018-09-30T11:52:40.456Z,27.70
2018-09-30T11:55:07.652Z,27.90
2018-09-30T11:57:34.886Z,28.00
2018-09-30T12:00:02.018Z,28.00
2018-09-30T12:02:29.253Z,28.10
2018-09-30T12:04:56.431Z,28.30
2018-09-30T12:07:23.584Z,28.40
2018-09-30T12:09:50.768Z,28.40
2018-09-30T12:12:17.986Z,28.30
2018-09-30T12:14:45.176Z,28.40
2018-09-30T12:17:12.320Z,28.40
2018-09-30T12:19:39.534Z,28.50
2018-09-30T12:22:06.712Z,28.50
2018-09-30T12:24:33.979Z,28.60
2018-09-30T12:27:01.146Z,28.80
2018-09-30T12:29:28.307Z,29.00
2018-09-30T12:31:55.527Z,29.20
2018-09-30T12:34:22.784Z,29.40
2018-09-30T12:36:49.949Z,29.40
2018-09-30T12:39:17.156Z,29.40
2018-09-30T12:41:44.345Z,29.40
2018-09-30T12:44:11.524Z,29.30
2018-09-30T12:46:38.687Z,29.30
2018-09-30T12:49:05.971Z,29.10
2018-09-30T12:51:33.139Z,29.00
2018-09-30T12:54:00.329Z,28.90
2018-09-30T12:56:27.805Z,29.00
2018-09-30T12:58:55.036Z,29.10
2018-09-30T13:01:22.194Z,29.00
2018-09-30T13:03:49.482Z,29.00
2018-09-30T13:06:16.665Z,28.90
2018-09-30T13:08:43.815Z,28.90
2018-09-30T13:11:11.025Z,28.90
2018-09-30T13:13:38.208Z,29.00
2018-09-30T13:16:05.456Z,29.10
2018-09-30T13:18:32.829Z,28.90
2018-09-30T13:21:00.330Z,28.80
2018-09-30T13:23:27.482Z,28.70
2018-09-30T13:25:54.674Z,28.70
2018-09-30T13:28:21.819Z,28.40
2018-09-30T13:30:48.982Z,28.40
2018-09-30T13:33:16.155Z,28.30
2018-09-30T13:35:43.333Z,28.20
2018-09-30T13:38:10.474Z,28.00
2018-09-30T13:40:37.884Z,27.80
2018-09-30T13:43:05.116Z,27.60
2018-09-30T13:45:32.316Z,27.60
2018-09-30T13:47:59.463Z,27.60
2018-09-30T13:50:26.878Z,27.60
2018-09-30T13:52:54.151Z,27.30
2018-09-30T13:55:37.663Z,27.20
2018-09-30T13:58:05.478Z,27.00
2018-09-30T14:00:32.757Z,26.90
2018-09-30T14:03:00.049Z,26.70
2018-09-30T14:05:27.332Z,26.60
2018-09-30T14:07:54.614Z,26.40
2018-09-30T14:10:21.870Z,26.30
2018-09-30T14:12:49.183Z,26.20
2018-09-30T14:15:16.425Z,26.10
2018-09-30T14:17:43.796Z,25.80
2018-09-30T14:20:11.093Z,25.70
2018-09-30T14:22:38.376Z,25.60
2018-09-30T14:25:05.702Z,25.50
2018-09-30T14:27:33.166Z,25.30
2018-09-30T14:30:00.347Z,25.10
2018-09-30T14:32:27.615Z,24.90
2018-09-30T14:34:55.040Z,24.80
2018-09-30T14:37:22.346Z,24.70
2018-09-30T14:39:49.638Z,24.40
2018-09-30T14:42:16.918Z,24.10
2018-09-30T14:44:44.215Z,24.00
2018-09-30T14:47:11.501Z,23.90
2018-09-30T14:49:38.760Z,23.80
2018-09-30T14:52:06.211Z,23.60
2018-09-30T14:54:33.562Z,23.50
2018-09-30T14:57:00.782Z,23.30
2018-09-30T14:59:28.297Z,23.20
2018-09-30T15:01:55.616Z,23.00
2018-09-30T15:04:23.079Z,22.90
2018-09-30T15:06:50.400Z,22.70
2018-09-30T15:09:17.756Z,22.50
2018-09-30T15:11:45.024Z,22.30
2018-09-30T15:14:12.335Z,22.00
2018-09-30T15:16:39.599Z,21.90
2018-09-30T15:19:07.227Z,21.70
2018-09-30T15:21:34.506Z,21.40
2018-09-30T15:24:01.855Z,21.30
2018-09-30T15:26:29.136Z,21.10
2018-09-30T15:28:56.453Z,21.00
2018-09-30T15:31:23.768Z,20.80
2018-09-30T15:33:51.047Z,20.60
2018-09-30T15:36:18.309Z,20.40
2018-09-30T15:38:45.881Z,20.20
2018-09-30T15:41:13.165Z,20.00
2018-09-30T15:43:40.482Z,19.80
2018-09-30T15:46:07.782Z,19.60
2018-09-30T15:48:35.105Z,19.50
2018-09-30T15:51:02.390Z,19.30
2018-09-30T15:53:29.655Z,19.20
2018-09-30T15:55:56.922Z,19.10
2018-09-30T15:58:24.219Z,18.90
2018-09-30T16:00:51.491Z,18.80
2018-09-30T16:03:18.806Z,18.70
2018-09-30T16:05:46.364Z,18.50
2018-09-30T16:08:13.798Z,18.40
2018-09-30T16:10:41.195Z,18.20
2018-09-30T16:13:08.643Z,18.10
2018-09-30T16:15:36.083Z,17.90
2018-09-30T16:18:03.409Z,17.80
2018-09-30T16:20:30.694Z,17.70
2018-09-30T16:22:57.991Z,17.50
2018-09-30T16:25:25.268Z,17.30
2018-09-30T16:27:52.610Z,17.10
2018-09-30T16:30:19.922Z,16.90
2018-09-30T16:32:47.203Z,16.60
2018-09-30T16:35:14.738Z,16.50
2018-09-30T16:37:41.977Z,16.20
2018-09-30T16:40:09.247Z,16.00
2018-09-30T16:42:36.548Z,15.80
2018-09-30T16:45:03.868Z,15.60
2018-09-30T16:47:31.132Z,15.30
2018-09-30T16:49:58.437Z,15.20
2018-09-30T16:52:25.929Z,15.00
2018-09-30T16:54:53.210Z,14.80
2018-09-30T16:57:20.570Z,14.60
2018-09-30T16:59:47.842Z,14.50
2018-09-30T17:02:15.141Z,14.30
2018-09-30T17:04:42.579Z,14.10
2018-09-30T17:07:10.083Z,13.90
2018-09-30T17:09:37.364Z,13.70
2018-09-30T17:12:04.666Z,13.50
2018-09-30T17:14:31.970Z,13.30
2018-09-30T17:16:59.258Z,13.20
2018-09-30T17:19:26.521Z,13.00
2018-09-30T17:21:53.858Z,12.80
2018-09-30T17:24:21.154Z,12.60
2018-09-30T17:26:48.419Z,12.40
2018-09-30T17:29:15.840Z,12.20
2018-09-30T17:31:43.136Z,12.10
2018-09-30T17:34:10.409Z,11.90
2018-09-30T17:36:37.865Z,11.80
2018-09-30T17:39:06.754Z,11.60
2018-09-30T17:41:34.059Z,11.50
2018-09-30T17:44:01.426Z,11.40
2018-09-30T17:46:28.685Z,11.30
2018-09-30T17:48:55.939Z,11.20
2018-09-30T17:51:23.218Z,11.10
2018-09-30T17:53:50.468Z,11.00
2018-09-30T17:56:17.750Z,10.80
2018-09-30T17:58:45.058Z,10.70
2018-09-30T18:01:12.605Z,10.60
2018-09-30T18:03:39.905Z,10.50
2018-09-30T18:06:07.329Z,10.40
2018-09-30T18:08:34.677Z,10.30
2018-09-30T18:11:02.020Z,10.20
2018-09-30T18:13:29.561Z,10.10
2018-09-30T18:15:56.855Z,10.00
2018-09-30T18:18:24.134Z,9.90
2018-09-30T18:20:51.512Z,9.80
2018-09-30T18:23:18.774Z,9.70
2018-09-30T18:25:46.040Z,9.60
2018-09-30T18:28:13.301Z,9.40
2018-09-30T18:30:40.566Z,9.40
2018-09-30T18:33:08.102Z,9.30
2018-09-30T18:35:35.349Z,9.10
2018-09-30T18:38:02.605Z,9.00
2018-09-30T18:40:36.413Z,8.90
2018-09-30T18:43:03.657Z,8.80
2018-09-30T18:45:30.957Z,8.70
2018-09-30T18:47:58.224Z,8.60
2018-09-30T18:50:25.497Z,8.60
2018-09-30T18:52:52.899Z,8.50
2018-09-30T18:55:22.161Z,8.40
2018-09-30T18:57:49.450Z,8.30
2018-09-30T19:00:16.704Z,8.20
2018-09-30T19:02:44.015Z,8.10
2018-09-30T19:05:11.333Z,8.00
2018-09-30T19:07:38.650Z,7.90
2018-09-30T19:10:05.923Z,7.80
2018-09-30T19:12:33.230Z,7.70
2018-09-30T19:15:00.543Z,7.60
2018-09-30T19:17:27.781Z,7.50
2018-09-30T19:19:55.213Z,7.50
2018-09-30T19:22:22.866Z,7.40
2018-09-30T19:24:50.132Z,7.30
2018-09-30T19:27:17.408Z,7.20
2018-09-30T19:29:44.675Z,7.20
2018-09-30T19:32:11.930Z,7.10
2018-09-30T19:34:39.262Z,7.00
2018-09-30T19:37:06.565Z,6.90
2018-09-30T19:39:33.843Z,6.90
2018-09-30T19:42:01.108Z,6.80
2018-09-30T19:44:28.390Z,6.70
2018-09-30T19:46:55.814Z,6.60
2018-09-30T19:49:23.058Z,6.60
2018-09-30T19:51:50.356Z,6.50
2018-09-30T19:54:17.638Z,6.40
2018-09-30T19:56:44.905Z,6.30
2018-09-30T19:59:12.349Z,6.30
2018-09-30T20:01:39.664Z,6.20
2018-09-30T20:04:06.958Z,6.10
2018-09-30T20:06:34.286Z,6.10
2018-09-30T20:09:01.599Z,6.00
2018-09-30T20:11:28.861Z,6.00
2018-09-30T20:13:56.117Z,5.90
2018-09-30T20:16:23.370Z,5.80
2018-09-30T20:18:50.672Z,5.70
2018-09-30T20:21:17.958Z,5.70
2018-09-30T20:23:45.242Z,5.60
2018-09-30T20:26:12.522Z,5.60
2018-09-30T20:28:39.875Z,5.50
2018-09-30T20:31:07.173Z,5.50
2018-09-30T20:33:34.602Z,5.40
2018-09-30T20:36:01.908Z,5.30
2018-09-30T20:38:29.156Z,5.30
2018-09-30T20:40:56.426Z,5.20
2018-09-30T20:43:23.711Z,5.20
2018-09-30T20:45:50.969Z,5.10
2018-09-30T20:48:18.249Z,5.00
2018-09-30T20:50:45.710Z,5.00
2018-09-30T20:53:12.961Z,4.90
2018-09-30T20:55:40.235Z,4.90
2018-09-30T20:58:07.517Z,4.80
2018-09-30T21:00:34.797Z,4.80
2018-09-30T21:03:02.122Z,4.70
2018-09-30T21:06:36.826Z,4.70
2018-09-30T21:09:07.255Z,4.60
2018-09-30T21:11:34.626Z,4.60
2018-09-30T21:14:02.564Z,4.50
2018-09-30T21:16:29.859Z,4.40
2018-09-30T21:18:57.138Z,4.40
2018-09-30T21:21:24.430Z,4.30
2018-09-30T21:23:51.719Z,4.30
2018-09-30T21:26:19.050Z,4.20
2018-09-30T21:28:46.327Z,4.20
2018-09-30T21:31:13.598Z,4.10
2018-09-30T21:33:40.874Z,4.10
2018-09-30T21:36:08.178Z,4.10
2018-09-30T21:38:35.518Z,4.00
2018-09-30T21:41:02.816Z,4.00
2018-09-30T21:43:30.078Z,3.90
2018-09-30T21:45:57.368Z,3.90
2018-09-30T21:48:24.638Z,3.90
2018-09-30T21:50:51.917Z,3.80
2018-09-30T21:53:19.169Z,3.80
2018-09-30T21:55:46.460Z,3.80
2018-09-30T21:58:13.745Z,3.80
2018-09-30T22:00:58.206Z,3.70
2018-09-30T22:03:25.822Z,3.80
2018-09-30T22:05:53.126Z,3.70
2018-09-30T22:08:20.414Z,3.70
2018-09-30T22:10:47.680Z,3.70
2018-09-30T22:13:15.088Z,3.70
2018-09-30T22:15:42.616Z,3.70
2018-09-30T22:18:09.964Z,3.70
2018-09-30T22:20:37.257Z,3.70
2018-09-30T22:23:04.540Z,3.70
2018-09-30T22:25:31.862Z,3.70
2018-09-30T22:27:59.466Z,3.70
2018-09-30T22:30:26.741Z,3.70
2018-09-30T22:32:54.033Z,3.70
2018-09-30T22:35:21.286Z,3.70
2018-09-30T22:37:48.589Z,3.70
2018-09-30T22:40:15.876Z,3.70
2018-09-30T22:42:43.234Z,3.70
2018-09-30T22:45:10.533Z,3.70
2018-09-30T22:47:37.950Z,3.70
2018-09-30T22:50:05.553Z,3.70
2018-09-30T22:52:32.839Z,3.60
2018-09-30T22:55:00.214Z,3.60
2018-09-30T22:57:28.350Z,3.60
2018-09-30T22:59:55.666Z,3.60
2018-09-30T23:02:22.967Z,3.60
2018-09-30T23:04:50.350Z,3.60
2018-09-30T23:07:17.705Z,3.60
2018-09-30T23:09:44.991Z,3.60
2018-09-30T23:12:12.290Z,3.60
2018-09-30T23:14:39.600Z,3.60
2018-09-30T23:17:07.633Z,3.60
2018-09-30T23:19:34.991Z,3.60
2018-09-30T23:22:02.313Z,3.60
2018-09-30T23:24:29.586Z,3.60
2018-09-30T23:26:56.894Z,3.70
2018-09-30T23:29:24.184Z,3.70
2018-09-30T23:31:51.429Z,3.70
2018-09-30T23:34:18.668Z,3.70
2018-09-30T23:36:45.969Z,3.70
2018-09-30T23:39:13.494Z,3.70
2018-09-30T23:41:40.907Z,3.70
2018-09-30T23:44:08.879Z,3.70
2018-09-30T23:46:36.192Z,3.70
2018-09-30T23:49:03.682Z,3.70
2018-09-30T23:51:31.110Z,3.80
2018-09-30T23:53:58.468Z,3.80
2018-09-30T23:56:25.932Z,3.80
2018-09-30T23:58:53.225Z,3.80
